createdAt,value
2023-08-17T00:02:17.496Z,5.78
2023-08-17T00:04:44.227Z,6.25
2023-08-17T00:07:10.839Z,5.90
2023-08-17T00:09:37.502Z,5.55
2023-08-17T00:12:04.985Z,5.53
2023-08-17T00:14:32.801Z,5.57
2023-08-17T00:17:00.238Z,5.80
2023-08-17T00:19:26.838Z,6.18
2023-08-17T00:21:54.023Z,6.90
2023-08-17T00:24:22.192Z,5.70
2023-08-17T00:26:48.830Z,5.78
2023-08-17T00:29:16.213Z,6.00
2023-08-17T00:31:43.079Z,6.32
2023-08-17T00:34:12.131Z,5.70
2023-08-17T00:36:38.715Z,6.10
2023-08-17T00:39:05.544Z,5.90
2023-08-17T00:41:32.251Z,6.50
2023-08-17T00:43:58.887Z,5.97
2023-08-17T00:46:26.134Z,5.68
2023-08-17T00:48:53.526Z,6.38
2023-08-17T00:51:21.798Z,6.25
2023-08-17T00:53:48.508Z,5.90
2023-08-17T00:56:15.291Z,6.65
2023-08-17T00:58:43.551Z,6.30
2023-08-17T01:01:10.498Z,6.75
2023-08-17T01:03:37.577Z,6.38
2023-08-17T01:06:04.380Z,6.47
2023-08-17T01:08:31.555Z,6.55
2023-08-17T01:11:10.300Z,6.30
2023-08-17T01:13:48.845Z,6.60
2023-08-17T01:16:22.387Z,6.53
2023-08-17T01:18:51.439Z,6.85
2023-08-17T01:21:20.910Z,6.50
2023-08-17T01:23:48.215Z,6.65
2023-08-17T01:26:16.853Z,6.10
2023-08-17T01:28:48.249Z,6.55
2023-08-17T01:31:32.754Z,6.53
2023-08-17T01:34:06.216Z,6.47
2023-08-17T01:36:46.867Z,6.60
2023-08-17T01:39:15.189Z,6.57
2023-08-17T01:41:43.148Z,6.57
2023-08-17T01:44:09.937Z,6.50
2023-08-17T01:46:36.770Z,6.93
2023-08-17T01:49:03.546Z,6.57
2023-08-17T01:51:31.037Z,6.70
2023-08-17T01:53:57.723Z,6.85
2023-08-17T01:56:24.471Z,6.50
2023-08-17T01:58:51.107Z,6.18
2023-08-17T02:01:17.724Z,6.32
2023-08-17T02:03:44.404Z,5.75
2023-08-17T02:06:12.598Z,6.05
2023-08-17T02:08:39.964Z,5.78
2023-08-17T02:11:06.578Z,6.20
2023-08-17T02:13:33.177Z,5.68
2023-08-17T02:15:59.804Z,5.57
2023-08-17T02:18:26.391Z,5.45
2023-08-17T02:20:53.828Z,5.45
2023-08-17T02:23:20.493Z,5.65
2023-08-17T02:25:47.155Z,5.70
2023-08-17T02:28:13.782Z,5.60
2023-08-17T02:30:40.886Z,5.60
2023-08-17T02:33:08.700Z,5.43
2023-08-17T02:35:36.118Z,5.35
2023-08-17T02:38:02.840Z,6.28
2023-08-17T02:40:29.671Z,5.75
2023-08-17T02:42:57.747Z,5.72
2023-08-17T02:45:24.453Z,5.95
2023-08-17T02:47:51.122Z,5.60
2023-08-17T02:50:19.548Z,5.88
2023-08-17T02:52:46.178Z,5.47
2023-08-17T02:55:12.826Z,5.50
2023-08-17T02:57:42.515Z,5.70
2023-08-17T03:00:09.932Z,5.18
2023-08-17T03:02:36.740Z,5.25
2023-08-17T03:05:04.423Z,5.10
2023-08-17T03:07:31.051Z,5.38
2023-08-17T03:09:57.692Z,5.03
2023-08-17T03:12:25.044Z,5.03
2023-08-17T03:14:51.682Z,5.50
2023-08-17T03:17:18.300Z,4.85
2023-08-17T03:19:45.782Z,4.93
2023-08-17T03:22:12.405Z,5.10
2023-08-17T03:24:39.091Z,5.38
2023-08-17T03:27:06.671Z,5.43
2023-08-17T03:29:33.315Z,5.15
2023-08-17T03:31:59.942Z,5.55
2023-08-17T03:34:26.597Z,4.97
2023-08-17T03:36:54.925Z,5.53
2023-08-17T03:39:21.555Z,5.25
2023-08-17T03:41:48.247Z,5.22
2023-08-17T03:44:16.631Z,5.30
2023-08-17T03:46:43.258Z,5.18
